sensor_id;sensor_type;location;lat;lon;timestamp;temperature;humidity
27270;DHT22;14769;56.934;24.176;2023-03-01T00:00:06;2.10;99.90
27270;DHT22;14769;56.934;24.176;2023-03-01T00:01:11;2.10;99.90
27270;DHT22;14769;56.934;24.176;2023-03-01T00:02:13;2.10;99.90
27270;DHT22;14769;56.934;24.176;2023-03-01T00:03:15;2.10;99.90
27270;DHT22;14769;56.934;24.176;2023-03-01T00:04:17;2.10;99.90
27270;DHT22;14769;56.934;24.176;2023-03-01T00:05:22;2.10;99.90
27270;DHT22;14769;56.934;24.176;2023-03-01T00:06:25;2.10;99.90
27270;DHT22;14769;56.934;24.176;2023-03-01T00:07:28;2.10;99.90
27270;DHT22;14769;56.934;24.176;2023-03-01T00:08:30;2.10;99.90
27270;DHT22;14769;56.934;24.176;2023-03-01T00:09:32;2.20;99.90
27270;DHT22;14769;56.934;24.176;2023-03-01T00:10:34;2.20;99.90
27270;DHT22;14769;56.934;24.176;2023-03-01T00:11:36;2.20;99.90
27270;DHT22;14769;56.934;24.176;2023-03-01T00:12:38;2.20;99.90
27270;DHT22;14769;56.934;24.176;2023-03-01T00:13:40;2.20;99.90
27270;DHT22;14769;56.934;24.176;2023-03-01T00:14:43;2.20;99.90
27270;DHT22;14769;56.934;24.176;2023-03-01T00:15:45;2.10;99.90
27270;DHT22;14769;56.934;24.176;2023-03-01T00:16:47;2.10;99.90
27270;DHT22;14769;56.934;24.176;2023-03-01T00:17:49;2.10;99.90
27270;DHT22;14769;56.934;24.176;2023-03-01T00:18:51;2.10;99.90
27270;DHT22;14769;56.934;24.176;2023-03-01T00:19:53;2.20;99.90
27270;DHT22;14769;56.934;24.176;2023-03-01T00:20:55;2.10;99.90
27270;DHT22;14769;56.934;24.176;2023-03-01T00:21:57;2.10;99.90
27270;DHT22;14769;56.934;24.176;2023-03-01T00:22:59;2.20;99.90
27270;DHT22;14769;56.934;24.176;2023-03-01T00:24:02;2.20;99.90
27270;DHT22;14769;56.934;24.176;2023-03-01T00:25:04;2.20;99.90
27270;DHT22;14769;56.934;24.176;2023-03-01T00:26:09;2.20;99.90
27270;DHT22;14769;56.934;24.176;2023-03-01T00:27:12;2.20;99.90
27270;DHT22;14769;56.934;24.176;2023-03-01T00:28:15;2.20;99.90
27270;DHT22;14769;56.934;24.176;2023-03-01T00:29:17;2.20;99.90
27270;DHT22;14769;56.934;24.176;2023-03-01T00:30:19;2.20;99.90
27270;DHT22;14769;56.934;24.176;2023-03-01T00:31:24;2.20;99.90
27270;DHT22;14769;56.934;24.176;2023-03-01T00:32:26;2.20;99.90
27270;DHT22;14769;56.934;24.176;2023-03-01T00:33:28;2.20;99.90
27270;DHT22;14769;56.934;24.176;2023-03-01T00:34:30;2.20;99.90
27270;DHT22;14769;56.934;24.176;2023-03-01T00:35:33;2.20;99.90
27270;DHT22;14769;56.934;24.176;2023-03-01T00:36:36;2.20;99.90
27270;DHT22;14769;56.934;24.176;2023-03-01T00:37:38;2.20;99.90
27270;DHT22;14769;56.934;24.176;2023-03-01T00:38:44;2.20;99.90
27270;DHT22;14769;56.934;24.176;2023-03-01T00:39:46;2.10;99.90
27270;DHT22;14769;56.934;24.176;2023-03-01T00:40:48;2.20;99.90
27270;DHT22;14769;56.934;24.176;2023-03-01T00:41:50;2.20;99.90
27270;DHT22;14769;56.934;24.176;2023-03-01T00:42:52;2.20;99.90
27270;DHT22;14769;56.934;24.176;2023-03-01T00:43:55;2.20;99.90
27270;DHT22;14769;56.934;24.176;2023-03-01T00:44:59;2.20;99.90
27270;DHT22;14769;56.934;24.176;2023-03-01T00:46:05;2.20;99.90
27270;DHT22;14769;56.934;24.176;2023-03-01T00:47:07;2.20;99.90
27270;DHT22;14769;56.934;24.176;2023-03-01T00:48:09;2.20;99.90
27270;DHT22;14769;56.934;24.176;2023-03-01T00:49:11;2.20;99.90
27270;DHT22;14769;56.934;24.176;2023-03-01T00:50:14;2.20;99.90
27270;DHT22;14769;56.934;24.176;2023-03-01T00:51:27;2.10;99.90
27270;DHT22;14769;56.934;24.176;2023-03-01T00:52:29;2.20;99.90
27270;DHT22;14769;56.934;24.176;2023-03-01T00:53:31;2.20;99.90
27270;DHT22;14769;56.934;24.176;2023-03-01T00:54:33;2.10;99.90
27270;DHT22;14769;56.934;24.176;2023-03-01T00:55:36;2.10;99.90
27270;DHT22;14769;56.934;24.176;2023-03-01T00:56:38;2.10;99.90
27270;DHT22;14769;56.934;24.176;2023-03-01T00:57:40;2.10;99.90
27270;DHT22;14769;56.934;24.176;2023-03-01T00:58:42;2.10;99.90
27270;DHT22;14769;56.934;24.176;2023-03-01T00:59:44;2.10;99.90
27270;DHT22;14769;56.934;24.176;2023-03-01T01:00:46;2.10;99.90
27270;DHT22;14769;56.934;24.176;2023-03-01T01:01:48;2.20;99.90
27270;DHT22;14769;56.934;24.176;2023-03-01T01:02:50;2.20;99.90
27270;DHT22;14769;56.934;24.176;2023-03-01T01:03:54;2.20;99.90
27270;DHT22;14769;56.934;24.176;2023-03-01T01:04:57;2.20;99.90
27270;DHT22;14769;56.934;24.176;2023-03-01T01:05:59;2.10;99.90
27270;DHT22;14769;56.934;24.176;2023-03-01T01:07:06;2.10;99.90
27270;DHT22;14769;56.934;24.176;2023-03-01T01:08:08;2.10;99.90
27270;DHT22;14769;56.934;24.176;2023-03-01T01:09:12;2.10;99.90
27270;DHT22;14769;56.934;24.176;2023-03-01T01:10:18;2.10;99.90
27270;DHT22;14769;56.934;24.176;2023-03-01T01:11:22;2.10;99.90
27270;DHT22;14769;56.934;24.176;2023-03-01T01:12:24;2.20;99.90
27270;DHT22;14769;56.934;24.176;2023-03-01T01:13:26;2.20;99.90
27270;DHT22;14769;56.934;24.176;2023-03-01T01:14:28;2.20;99.90
27270;DHT22;14769;56.934;24.176;2023-03-01T01:15:34;2.20;99.90
27270;DHT22;14769;56.934;24.176;2023-03-01T01:16:36;2.20;99.90
27270;DHT22;14769;56.934;24.176;2023-03-01T01:17:38;2.10;99.90
27270;DHT22;14769;56.934;24.176;2023-03-01T01:18:40;2.10;99.90
27270;DHT22;14769;56.934;24.176;2023-03-01T01:19:42;2.10;99.90
27270;DHT22;14769;56.934;24.176;2023-03-01T01:20:45;2.10;99.90
27270;DHT22;14769;56.934;24.176;2023-03-01T01:21:47;2.10;99.90
27270;DHT22;14769;56.934;24.176;2023-03-01T01:22:49;2.10;99.90
27270;DHT22;14769;56.934;24.176;2023-03-01T01:23:53;2.10;99.90
27270;DHT22;14769;56.934;24.176;2023-03-01T01:24:55;2.10;99.90
27270;DHT22;14769;56.934;24.176;2023-03-01T01:25:57;2.10;99.90
27270;DHT22;14769;56.934;24.176;2023-03-01T01:27:05;2.10;99.90
27270;DHT22;14769;56.934;24.176;2023-03-01T01:28:07;2.10;99.90
27270;DHT22;14769;56.934;24.176;2023-03-01T01:29:09;2.10;99.90
27270;DHT22;14769;56.934;24.176;2023-03-01T01:30:12;2.10;99.90
27270;DHT22;14769;56.934;24.176;2023-03-01T01:31:15;2.10;99.90
27270;DHT22;14769;56.934;24.176;2023-03-01T01:32:17;2.10;99.90
27270;DHT22;14769;56.934;24.176;2023-03-01T01:33:19;2.10;99.90
27270;DHT22;14769;56.934;24.176;2023-03-01T01:34:21;2.10;99.90
27270;DHT22;14769;56.934;24.176;2023-03-01T01:35:23;2.10;99.90
27270;DHT22;14769;56.934;24.176;2023-03-01T01:36:26;2.10;99.90
27270;DHT22;14769;56.934;24.176;2023-03-01T01:37:29;2.10;99.90
27270;DHT22;14769;56.934;24.176;2023-03-01T01:38:33;2.10;99.90
27270;DHT22;14769;56.934;24.176;2023-03-01T01:39:38;2.10;99.90
27270;DHT22;14769;56.934;24.176;2023-03-01T01:40:46;2.10;99.90
27270;DHT22;14769;56.934;24.176;2023-03-01T01:41:48;2.10;99.90
27270;DHT22;14769;56.934;24.176;2023-03-01T01:42:50;2.10;99.90
27270;DHT22;14769;56.934;24.176;2023-03-01T01:44:23;2.10;99.90
27270;DHT22;14769;56.934;24.176;2023-03-01T01:45:34;2.10;99.90
27270;DHT22;14769;56.934;24.176;2023-03-01T01:46:40;2.10;99.90
27270;DHT22;14769;56.934;24.176;2023-03-01T01:47:42;2.10;99.90
27270;DHT22;14769;56.934;24.176;2023-03-01T01:48:52;2.10;99.90
27270;DHT22;14769;56.934;24.176;2023-03-01T01:49:56;2.10;99.90
27270;DHT22;14769;56.934;24.176;2023-03-01T01:50:59;2.10;99.90
27270;DHT22;14769;56.934;24.176;2023-03-01T01:53:12;2.10;99.90
27270;DHT22;14769;56.934;24.176;2023-03-01T01:54:41;2.10;99.90
27270;DHT22;14769;56.934;24.176;2023-03-01T01:55:49;2.10;99.90
27270;DHT22;14769;56.934;24.176;2023-03-01T01:56:59;2.10;99.90
27270;DHT22;14769;56.934;24.176;2023-03-01T01:58:05;2.10;99.90
27270;DHT22;14769;56.934;24.176;2023-03-01T01:59:10;2.10;99.90
27270;DHT22;14769;56.934;24.176;2023-03-01T02:00:25;2.10;99.90
27270;DHT22;14769;56.934;24.176;2023-03-01T02:01:27;2.10;99.90
27270;DHT22;14769;56.934;24.176;2023-03-01T02:02:29;2.10;99.90
27270;DHT22;14769;56.934;24.176;2023-03-01T02:03:33;2.10;99.90
27270;DHT22;14769;56.934;24.176;2023-03-01T02:04:39;2.10;99.90
27270;DHT22;14769;56.934;24.176;2023-03-01T02:05:52;2.10;99.90
27270;DHT22;14769;56.934;24.176;2023-03-01T02:08:12;2.10;99.90
27270;DHT22;14769;56.934;24.176;2023-03-01T02:09:15;2.10;99.90
27270;DHT22;14769;56.934;24.176;2023-03-01T02:10:20;2.10;99.90
27270;DHT22;14769;56.934;24.176;2023-03-01T02:11:22;2.10;99.90
27270;DHT22;14769;56.934;24.176;2023-03-01T02:12:25;2.00;99.90
27270;DHT22;14769;56.934;24.176;2023-03-01T02:13:28;2.10;99.90
27270;DHT22;14769;56.934;24.176;2023-03-01T02:14:30;2.10;99.90
27270;DHT22;14769;56.934;24.176;2023-03-01T02:15:35;2.10;99.90
27270;DHT22;14769;56.934;24.176;2023-03-01T02:16:37;2.00;99.90
27270;DHT22;14769;56.934;24.176;2023-03-01T02:17:39;2.00;99.90
27270;DHT22;14769;56.934;24.176;2023-03-01T02:18:42;2.10;99.90
27270;DHT22;14769;56.934;24.176;2023-03-01T02:20:38;2.00;99.90
27270;DHT22;14769;56.934;24.176;2023-03-01T02:22:34;2.00;99.90
27270;DHT22;14769;56.934;24.176;2023-03-01T02:23:38;2.00;99.90
27270;DHT22;14769;56.934;24.176;2023-03-01T02:25:00;2.00;99.90
27270;DHT22;14769;56.934;24.176;2023-03-01T02:29:30;1.90;99.90
27270;DHT22;14769;56.934;24.176;2023-03-01T02:30:33;1.90;99.90
27270;DHT22;14769;56.934;24.176;2023-03-01T02:32:46;1.90;99.90
27270;DHT22;14769;56.934;24.176;2023-03-01T02:33:48;1.90;99.90
27270;DHT22;14769;56.934;24.176;2023-03-01T02:34:57;1.90;99.90
27270;DHT22;14769;56.934;24.176;2023-03-01T02:36:06;1.90;99.90
27270;DHT22;14769;56.934;24.176;2023-03-01T02:37:13;1.90;99.90
27270;DHT22;14769;56.934;24.176;2023-03-01T02:38:17;1.90;99.90
27270;DHT22;14769;56.934;24.176;2023-03-01T02:39:24;1.80;99.90
27270;DHT22;14769;56.934;24.176;2023-03-01T02:40:29;1.80;99.90
27270;DHT22;14769;56.934;24.176;2023-03-01T02:41:36;1.80;99.90
27270;DHT22;14769;56.934;24.176;2023-03-01T02:42:51;1.80;99.90
27270;DHT22;14769;56.934;24.176;2023-03-01T02:43:55;1.80;99.90
27270;DHT22;14769;56.934;24.176;2023-03-01T02:44:57;1.80;99.90
27270;DHT22;14769;56.934;24.176;2023-03-01T02:46:13;1.80;99.90
27270;DHT22;14769;56.934;24.176;2023-03-01T02:47:15;1.90;99.90
27270;DHT22;14769;56.934;24.176;2023-03-01T02:48:18;1.80;99.90
27270;DHT22;14769;56.934;24.176;2023-03-01T02:55:09;1.80;99.90
27270;DHT22;14769;56.934;24.176;2023-03-01T02:56:11;1.80;99.90
27270;DHT22;14769;56.934;24.176;2023-03-01T02:57:15;1.80;99.90
27270;DHT22;14769;56.934;24.176;2023-03-01T02:58:17;1.80;99.90
27270;DHT22;14769;56.934;24.176;2023-03-01T02:59:24;1.80;99.90
27270;DHT22;14769;56.934;24.176;2023-03-01T03:00:37;1.80;99.90
27270;DHT22;14769;56.934;24.176;2023-03-01T03:01:41;1.80;99.90
27270;DHT22;14769;56.934;24.176;2023-03-01T03:02:43;1.80;99.90
27270;DHT22;14769;56.934;24.176;2023-03-01T03:03:46;1.80;99.90
27270;DHT22;14769;56.934;24.176;2023-03-01T03:04:48;1.80;99.90
27270;DHT22;14769;56.934;24.176;2023-03-01T03:05:50;1.80;99.90
27270;DHT22;14769;56.934;24.176;2023-03-01T03:06:52;1.80;99.90
27270;DHT22;14769;56.934;24.176;2023-03-01T03:07:54;1.90;99.90
27270;DHT22;14769;56.934;24.176;2023-03-01T03:08:57;1.80;99.90
27270;DHT22;14769;56.934;24.176;2023-03-01T03:09:59;1.90;99.90
27270;DHT22;14769;56.934;24.176;2023-03-01T03:11:01;1.90;99.90
27270;DHT22;14769;56.934;24.176;2023-03-01T03:12:04;1.90;99.90
27270;DHT22;14769;56.934;24.176;2023-03-01T03:13:11;1.90;99.90
27270;DHT22;14769;56.934;24.176;2023-03-01T03:14:15;1.90;99.90
27270;DHT22;14769;56.934;24.176;2023-03-01T03:15:17;1.90;99.90
27270;DHT22;14769;56.934;24.176;2023-03-01T03:16:20;1.90;99.90
27270;DHT22;14769;56.934;24.176;2023-03-01T03:17:23;1.80;99.90
27270;DHT22;14769;56.934;24.176;2023-03-01T03:18:25;1.90;99.90
27270;DHT22;14769;56.934;24.176;2023-03-01T03:19:30;1.90;99.90
27270;DHT22;14769;56.934;24.176;2023-03-01T03:20:33;1.90;99.90
27270;DHT22;14769;56.934;24.176;2023-03-01T03:21:35;1.90;99.90
27270;DHT22;14769;56.934;24.176;2023-03-01T03:22:39;1.90;99.90
27270;DHT22;14769;56.934;24.176;2023-03-01T03:23:41;1.90;99.90
27270;DHT22;14769;56.934;24.176;2023-03-01T03:24:43;1.90;99.90
27270;DHT22;14769;56.934;24.176;2023-03-01T03:25:48;1.90;99.90
27270;DHT22;14769;56.934;24.176;2023-03-01T03:26:50;1.90;99.90
27270;DHT22;14769;56.934;24.176;2023-03-01T03:27:53;2.00;99.90
27270;DHT22;14769;56.934;24.176;2023-03-01T03:28:58;1.90;99.90
27270;DHT22;14769;56.934;24.176;2023-03-01T03:30:00;1.90;99.90
27270;DHT22;14769;56.934;24.176;2023-03-01T03:31:06;2.00;99.90
27270;DHT22;14769;56.934;24.176;2023-03-01T03:32:08;2.00;99.90
27270;DHT22;14769;56.934;24.176;2023-03-01T03:33:11;2.00;99.90
27270;DHT22;14769;56.934;24.176;2023-03-01T03:34:14;2.00;99.90
27270;DHT22;14769;56.934;24.176;2023-03-01T03:35:23;2.00;99.90
27270;DHT22;14769;56.934;24.176;2023-03-01T03:36:26;2.10;99.90
27270;DHT22;14769;56.934;24.176;2023-03-01T03:37:28;2.10;99.90
27270;DHT22;14769;56.934;24.176;2023-03-01T03:38:48;2.00;99.90
27270;DHT22;14769;56.934;24.176;2023-03-01T03:39:50;2.10;99.90
27270;DHT22;14769;56.934;24.176;2023-03-01T03:41:02;2.10;99.90
27270;DHT22;14769;56.934;24.176;2023-03-01T03:42:04;2.10;99.90
27270;DHT22;14769;56.934;24.176;2023-03-01T03:43:08;2.10;99.90
27270;DHT22;14769;56.934;24.176;2023-03-01T03:44:10;2.10;99.90
27270;DHT22;14769;56.934;24.176;2023-03-01T03:45:12;2.10;99.90
27270;DHT22;14769;56.934;24.176;2023-03-01T03:46:14;2.20;99.90
27270;DHT22;14769;56.934;24.176;2023-03-01T03:47:16;2.20;99.90
27270;DHT22;14769;56.934;24.176;2023-03-01T03:48:18;2.20;99.90
27270;DHT22;14769;56.934;24.176;2023-03-01T03:49:21;2.20;99.90
27270;DHT22;14769;56.934;24.176;2023-03-01T03:50:23;2.20;99.90
27270;DHT22;14769;56.934;24.176;2023-03-01T03:51:25;2.20;99.90
27270;DHT22;14769;56.934;24.176;2023-03-01T03:52:27;2.20;99.90
27270;DHT22;14769;56.934;24.176;2023-03-01T03:53:29;2.30;99.90
27270;DHT22;14769;56.934;24.176;2023-03-01T03:54:31;2.30;99.90
27270;DHT22;14769;56.934;24.176;2023-03-01T03:55:33;2.30;99.90
27270;DHT22;14769;56.934;24.176;2023-03-01T03:56:35;2.30;99.90
27270;DHT22;14769;56.934;24.176;2023-03-01T03:57:40;2.30;99.90
27270;DHT22;14769;56.934;24.176;2023-03-01T03:58:42;2.30;99.90
27270;DHT22;14769;56.934;24.176;2023-03-01T03:59:44;2.40;99.90
27270;DHT22;14769;56.934;24.176;2023-03-01T04:00:53;2.30;99.90
27270;DHT22;14769;56.934;24.176;2023-03-01T04:01:55;2.40;99.90
27270;DHT22;14769;56.934;24.176;2023-03-01T04:02:57;2.40;99.90
27270;DHT22;14769;56.934;24.176;2023-03-01T04:03:59;2.40;99.90
27270;DHT22;14769;56.934;24.176;2023-03-01T04:05:07;2.40;99.90
27270;DHT22;14769;56.934;24.176;2023-03-01T04:06:09;2.40;99.90
27270;DHT22;14769;56.934;24.176;2023-03-01T04:07:11;2.30;99.90
27270;DHT22;14769;56.934;24.176;2023-03-01T04:08:13;2.40;99.90
27270;DHT22;14769;56.934;24.176;2023-03-01T04:09:16;2.40;99.90
27270;DHT22;14769;56.934;24.176;2023-03-01T04:10:18;2.40;99.90
27270;DHT22;14769;56.934;24.176;2023-03-01T04:11:20;2.40;99.90
27270;DHT22;14769;56.934;24.176;2023-03-01T04:12:28;2.40;99.90
27270;DHT22;14769;56.934;24.176;2023-03-01T04:13:30;2.40;99.90
27270;DHT22;14769;56.934;24.176;2023-03-01T04:14:32;2.40;99.90
27270;DHT22;14769;56.934;24.176;2023-03-01T04:15:35;2.40;99.90
27270;DHT22;14769;56.934;24.176;2023-03-01T04:16:37;2.40;99.90
27270;DHT22;14769;56.934;24.176;2023-03-01T04:17:40;2.40;99.90
27270;DHT22;14769;56.934;24.176;2023-03-01T04:18:43;2.40;99.90
27270;DHT22;14769;56.934;24.176;2023-03-01T04:19:45;2.40;99.90
27270;DHT22;14769;56.934;24.176;2023-03-01T04:20:50;2.40;99.90
27270;DHT22;14769;56.934;24.176;2023-03-01T04:21:53;2.40;99.90
27270;DHT22;14769;56.934;24.176;2023-03-01T04:23:07;2.40;99.90
27270;DHT22;14769;56.934;24.176;2023-03-01T04:24:12;2.40;99.90
27270;DHT22;14769;56.934;24.176;2023-03-01T04:25:14;2.40;99.90
27270;DHT22;14769;56.934;24.176;2023-03-01T04:26:16;2.40;99.90
27270;DHT22;14769;56.934;24.176;2023-03-01T04:27:20;2.40;99.90
27270;DHT22;14769;56.934;24.176;2023-03-01T04:28:30;2.40;99.90
27270;DHT22;14769;56.934;24.176;2023-03-01T04:29:34;2.40;99.90
27270;DHT22;14769;56.934;24.176;2023-03-01T04:30:37;2.40;99.90
27270;DHT22;14769;56.934;24.176;2023-03-01T04:31:40;2.40;99.90
27270;DHT22;14769;56.934;24.176;2023-03-01T04:32:42;2.40;99.90
27270;DHT22;14769;56.934;24.176;2023-03-01T04:33:53;2.40;99.90
27270;DHT22;14769;56.934;24.176;2023-03-01T04:34:55;2.40;99.90
27270;DHT22;14769;56.934;24.176;2023-03-01T04:35:57;2.40;99.90
27270;DHT22;14769;56.934;24.176;2023-03-01T04:36:59;2.40;99.90
27270;DHT22;14769;56.934;24.176;2023-03-01T04:38:02;2.40;99.90
27270;DHT22;14769;56.934;24.176;2023-03-01T04:39:04;2.40;99.90
27270;DHT22;14769;56.934;24.176;2023-03-01T04:40:14;2.40;99.90
27270;DHT22;14769;56.934;24.176;2023-03-01T04:41:20;2.40;99.90
27270;DHT22;14769;56.934;24.176;2023-03-01T04:42:23;2.40;99.90
27270;DHT22;14769;56.934;24.176;2023-03-01T04:43:25;2.40;99.90
27270;DHT22;14769;56.934;24.176;2023-03-01T04:44:26;2.40;99.90
27270;DHT22;14769;56.934;24.176;2023-03-01T04:45:28;2.40;99.90
27270;DHT22;14769;56.934;24.176;2023-03-01T04:46:30;2.50;99.90
27270;DHT22;14769;56.934;24.176;2023-03-01T04:47:33;2.40;99.90
27270;DHT22;14769;56.934;24.176;2023-03-01T04:48:36;2.50;99.90
27270;DHT22;14769;56.934;24.176;2023-03-01T04:49:38;2.40;99.90
27270;DHT22;14769;56.934;24.176;2023-03-01T04:50:40;2.40;99.90
27270;DHT22;14769;56.934;24.176;2023-03-01T04:51:42;2.40;99.90
27270;DHT22;14769;56.934;24.176;2023-03-01T04:52:44;2.50;99.90
27270;DHT22;14769;56.934;24.176;2023-03-01T04:53:47;2.50;99.90
27270;DHT22;14769;56.934;24.176;2023-03-01T04:54:49;2.50;99.90
27270;DHT22;14769;56.934;24.176;2023-03-01T04:55:51;2.50;99.90
27270;DHT22;14769;56.934;24.176;2023-03-01T04:56:54;2.50;99.90
27270;DHT22;14769;56.934;24.176;2023-03-01T04:57:56;2.50;99.90
27270;DHT22;14769;56.934;24.176;2023-03-01T04:58:58;2.50;99.90
27270;DHT22;14769;56.934;24.176;2023-03-01T05:00:04;2.50;99.90
27270;DHT22;14769;56.934;24.176;2023-03-01T05:01:22;2.50;99.90
27270;DHT22;14769;56.934;24.176;2023-03-01T05:02:23;2.50;99.90
27270;DHT22;14769;56.934;24.176;2023-03-01T05:03:26;2.50;99.90
27270;DHT22;14769;56.934;24.176;2023-03-01T05:04:28;2.50;99.90
27270;DHT22;14769;56.934;24.176;2023-03-01T05:05:35;2.50;99.90
27270;DHT22;14769;56.934;24.176;2023-03-01T05:06:37;2.50;99.90
27270;DHT22;14769;56.934;24.176;2023-03-01T05:07:40;2.50;99.90
27270;DHT22;14769;56.934;24.176;2023-03-01T05:08:43;2.50;99.90
27270;DHT22;14769;56.934;24.176;2023-03-01T05:09:46;2.50;99.90
27270;DHT22;14769;56.934;24.176;2023-03-01T05:10:50;2.50;99.90
27270;DHT22;14769;56.934;24.176;2023-03-01T05:11:53;2.50;99.90
27270;DHT22;14769;56.934;24.176;2023-03-01T05:12:56;2.60;99.90
27270;DHT22;14769;56.934;24.176;2023-03-01T05:13:59;2.60;99.90
27270;DHT22;14769;56.934;24.176;2023-03-01T05:15:00;2.60;99.90
27270;DHT22;14769;56.934;24.176;2023-03-01T05:16:09;2.50;99.90
27270;DHT22;14769;56.934;24.176;2023-03-01T05:17:14;2.50;99.90
27270;DHT22;14769;56.934;24.176;2023-03-01T05:18:16;2.60;99.90
27270;DHT22;14769;56.934;24.176;2023-03-01T05:19:18;2.50;99.90
27270;DHT22;14769;56.934;24.176;2023-03-01T05:20:25;2.60;99.90
27270;DHT22;14769;56.934;24.176;2023-03-01T05:21:27;2.60;99.90
27270;DHT22;14769;56.934;24.176;2023-03-01T05:22:29;2.60;99.90
27270;DHT22;14769;56.934;24.176;2023-03-01T05:23:32;2.60;99.90
27270;DHT22;14769;56.934;24.176;2023-03-01T05:24:34;2.60;99.90
27270;DHT22;14769;56.934;24.176;2023-03-01T05:25:37;2.60;99.90
27270;DHT22;14769;56.934;24.176;2023-03-01T05:26:41;2.60;99.90
27270;DHT22;14769;56.934;24.176;2023-03-01T05:27:44;2.60;99.90
27270;DHT22;14769;56.934;24.176;2023-03-01T05:28:46;2.60;99.90
27270;DHT22;14769;56.934;24.176;2023-03-01T05:29:48;2.60;99.90
27270;DHT22;14769;56.934;24.176;2023-03-01T05:30:50;2.60;99.90
27270;DHT22;14769;56.934;24.176;2023-03-01T05:31:56;2.60;99.90
27270;DHT22;14769;56.934;24.176;2023-03-01T05:33:00;2.60;99.90
27270;DHT22;14769;56.934;24.176;2023-03-01T05:34:02;2.60;99.90
27270;DHT22;14769;56.934;24.176;2023-03-01T05:35:05;2.60;99.90
27270;DHT22;14769;56.934;24.176;2023-03-01T05:36:08;2.60;99.90
27270;DHT22;14769;56.934;24.176;2023-03-01T05:37:11;2.70;99.90
27270;DHT22;14769;56.934;24.176;2023-03-01T05:38:13;2.70;99.90
27270;DHT22;14769;56.934;24.176;2023-03-01T05:39:15;2.70;99.90
27270;DHT22;14769;56.934;24.176;2023-03-01T05:40:20;2.70;99.90
27270;DHT22;14769;56.934;24.176;2023-03-01T05:41:22;2.70;99.90
27270;DHT22;14769;56.934;24.176;2023-03-01T05:42:23;2.70;99.90
27270;DHT22;14769;56.934;24.176;2023-03-01T05:43:26;2.70;99.90
27270;DHT22;14769;56.934;24.176;2023-03-01T05:44:28;2.70;99.90
27270;DHT22;14769;56.934;24.176;2023-03-01T05:45:31;2.70;99.90
27270;DHT22;14769;56.934;24.176;2023-03-01T05:46:34;2.70;99.90
27270;DHT22;14769;56.934;24.176;2023-03-01T05:47:36;2.70;99.90
27270;DHT22;14769;56.934;24.176;2023-03-01T05:48:37;2.70;99.90
27270;DHT22;14769;56.934;24.176;2023-03-01T05:49:40;2.70;99.90
27270;DHT22;14769;56.934;24.176;2023-03-01T05:50:44;2.70;99.90
27270;DHT22;14769;56.934;24.176;2023-03-01T05:51:50;2.70;99.90
27270;DHT22;14769;56.934;24.176;2023-03-01T05:52:59;2.80;99.90
27270;DHT22;14769;56.934;24.176;2023-03-01T05:54:01;2.80;99.90
27270;DHT22;14769;56.934;24.176;2023-03-01T05:55:03;2.70;99.90
27270;DHT22;14769;56.934;24.176;2023-03-01T05:56:06;2.70;99.90
27270;DHT22;14769;56.934;24.176;2023-03-01T05:57:08;2.70;99.90
27270;DHT22;14769;56.934;24.176;2023-03-01T05:58:12;2.80;99.90
27270;DHT22;14769;56.934;24.176;2023-03-01T05:59:16;2.80;99.90
27270;DHT22;14769;56.934;24.176;2023-03-01T06:00:19;2.80;99.90
27270;DHT22;14769;56.934;24.176;2023-03-01T06:01:23;2.80;99.90
27270;DHT22;14769;56.934;24.176;2023-03-01T06:02:25;2.80;99.90
27270;DHT22;14769;56.934;24.176;2023-03-01T06:03:28;2.80;99.90
27270;DHT22;14769;56.934;24.176;2023-03-01T06:04:30;2.80;99.90
27270;DHT22;14769;56.934;24.176;2023-03-01T06:05:32;2.80;99.90
27270;DHT22;14769;56.934;24.176;2023-03-01T06:06:36;2.80;99.90
27270;DHT22;14769;56.934;24.176;2023-03-01T06:07:41;2.80;99.90
27270;DHT22;14769;56.934;24.176;2023-03-01T06:08:43;2.80;99.90
27270;DHT22;14769;56.934;24.176;2023-03-01T06:09:45;2.80;99.90
27270;DHT22;14769;56.934;24.176;2023-03-01T06:10:47;2.80;99.90
27270;DHT22;14769;56.934;24.176;2023-03-01T06:11:49;2.80;99.90
27270;DHT22;14769;56.934;24.176;2023-03-01T06:12:51;2.80;99.90
27270;DHT22;14769;56.934;24.176;2023-03-01T06:13:53;2.80;99.90
27270;DHT22;14769;56.934;24.176;2023-03-01T06:14:55;2.80;99.90
27270;DHT22;14769;56.934;24.176;2023-03-01T06:15:59;2.80;99.90
27270;DHT22;14769;56.934;24.176;2023-03-01T06:17:01;2.80;99.90
27270;DHT22;14769;56.934;24.176;2023-03-01T06:18:03;2.80;99.90
27270;DHT22;14769;56.934;24.176;2023-03-01T06:19:05;2.90;99.90
27270;DHT22;14769;56.934;24.176;2023-03-01T06:20:13;2.90;99.90
27270;DHT22;14769;56.934;24.176;2023-03-01T06:21:16;2.80;99.90
27270;DHT22;14769;56.934;24.176;2023-03-01T06:22:18;2.80;99.90
27270;DHT22;14769;56.934;24.176;2023-03-01T06:23:20;2.80;99.90
27270;DHT22;14769;56.934;24.176;2023-03-01T06:24:22;2.80;99.90
27270;DHT22;14769;56.934;24.176;2023-03-01T06:25:26;2.80;99.90
27270;DHT22;14769;56.934;24.176;2023-03-01T06:26:28;2.80;99.90
27270;DHT22;14769;56.934;24.176;2023-03-01T06:27:31;2.80;99.90
27270;DHT22;14769;56.934;24.176;2023-03-01T06:28:33;2.70;99.90
27270;DHT22;14769;56.934;24.176;2023-03-01T06:29:35;2.70;99.90
27270;DHT22;14769;56.934;24.176;2023-03-01T06:30:37;2.70;99.90
27270;DHT22;14769;56.934;24.176;2023-03-01T06:31:39;2.80;99.90
27270;DHT22;14769;56.934;24.176;2023-03-01T06:32:41;2.80;99.90
27270;DHT22;14769;56.934;24.176;2023-03-01T06:33:46;2.80;99.90
27270;DHT22;14769;56.934;24.176;2023-03-01T06:34:48;2.80;99.90
27270;DHT22;14769;56.934;24.176;2023-03-01T06:35:51;2.80;99.90
27270;DHT22;14769;56.934;24.176;2023-03-01T06:36:53;2.80;99.90
27270;DHT22;14769;56.934;24.176;2023-03-01T06:37:55;2.80;99.90
27270;DHT22;14769;56.934;24.176;2023-03-01T06:38:57;2.80;99.90
27270;DHT22;14769;56.934;24.176;2023-03-01T06:39:59;2.80;99.90
27270;DHT22;14769;56.934;24.176;2023-03-01T06:41:01;2.90;99.90
27270;DHT22;14769;56.934;24.176;2023-03-01T06:42:03;2.90;99.90
27270;DHT22;14769;56.934;24.176;2023-03-01T06:43:06;2.90;99.90
27270;DHT22;14769;56.934;24.176;2023-03-01T06:44:09;2.90;99.90
27270;DHT22;14769;56.934;24.176;2023-03-01T06:45:11;2.90;99.90
27270;DHT22;14769;56.934;24.176;2023-03-01T06:46:13;2.90;99.90
27270;DHT22;14769;56.934;24.176;2023-03-01T06:47:15;2.90;99.90
27270;DHT22;14769;56.934;24.176;2023-03-01T06:48:17;2.90;99.90
27270;DHT22;14769;56.934;24.176;2023-03-01T06:49:20;3.00;99.90
27270;DHT22;14769;56.934;24.176;2023-03-01T06:50:23;3.00;99.90
27270;DHT22;14769;56.934;24.176;2023-03-01T06:51:25;3.00;99.90
27270;DHT22;14769;56.934;24.176;2023-03-01T06:52:27;3.00;99.90
27270;DHT22;14769;56.934;24.176;2023-03-01T06:53:30;3.00;99.90
27270;DHT22;14769;56.934;24.176;2023-03-01T06:54:32;3.00;99.90
27270;DHT22;14769;56.934;24.176;2023-03-01T06:55:34;3.10;99.90